createdAt,value
2023-01-01T00:00:28.901Z,15.13
2023-01-01T00:05:35.183Z,15.17
2023-01-01T00:10:43.628Z,9.30
2023-01-01T00:15:52.561Z,7.23
2023-01-01T00:21:05.406Z,9.27
2023-01-01T00:26:16.005Z,8.60
2023-01-01T00:31:23.850Z,9.17
2023-01-01T00:36:30.612Z,7.93
2023-01-01T00:41:39.109Z,4.67
2023-01-01T00:46:44.068Z,5.47
2023-01-01T00:51:51.293Z,3.40
2023-01-01T00:56:59.422Z,5.63
2023-01-01T01:02:05.405Z,4.67
2023-01-01T01:07:10.586Z,4.33
2023-01-01T01:12:19.231Z,5.87
2023-01-01T01:17:24.196Z,3.53
2023-01-01T01:22:29.761Z,5.23
2023-01-01T01:27:38.837Z,3.73
2023-01-01T01:32:43.830Z,6.50
2023-01-01T01:37:51.108Z,5.97
2023-01-01T01:42:58.890Z,5.67
2023-01-01T01:48:04.695Z,4.63
2023-01-01T01:53:12.162Z,5.13
2023-01-01T01:58:20.400Z,4.60
2023-01-01T02:03:30.078Z,3.77
2023-01-01T02:08:36.587Z,4.63
2023-01-01T02:13:46.369Z,4.93
2023-01-01T02:18:57.173Z,4.47
2023-01-01T02:24:35.815Z,4.73
2023-01-01T02:29:51.572Z,4.17
2023-01-01T02:35:23.518Z,3.67
2023-01-01T02:40:31.089Z,4.80
2023-01-01T02:45:42.744Z,4.37
2023-01-01T02:50:48.254Z,3.97
2023-01-01T02:56:03.391Z,9.30
2023-01-01T03:01:22.370Z,2.80
2023-01-01T03:06:37.220Z,4.40
2023-01-01T03:11:50.393Z,4.30
2023-01-01T03:17:03.980Z,5.93
2023-01-01T03:22:12.866Z,3.97
2023-01-01T03:27:20.982Z,5.57
2023-01-01T03:32:47.804Z,4.67
2023-01-01T03:37:54.913Z,2.60
2023-01-01T03:43:05.990Z,4.67
2023-01-01T03:48:16.458Z,3.90
2023-01-01T03:53:31.502Z,4.03
2023-01-01T03:58:43.785Z,2.77
2023-01-01T04:03:52.416Z,4.20
2023-01-01T04:09:00.420Z,3.57
2023-01-01T04:14:05.497Z,7.43
2023-01-01T04:19:15.624Z,8.77
2023-01-01T04:24:21.876Z,6.07
2023-01-01T04:29:27.207Z,6.53
2023-01-01T04:34:35.188Z,6.40
2023-01-01T04:39:40.284Z,5.80
2023-01-01T04:44:45.258Z,6.83
2023-01-01T04:49:52.868Z,3.60
2023-01-01T04:54:57.961Z,7.60
2023-01-01T05:00:03.021Z,3.20
2023-01-01T05:05:13.758Z,8.70
2023-01-01T05:10:18.908Z,3.27
2023-01-01T05:15:23.962Z,5.03
2023-01-01T05:20:32.485Z,5.50
2023-01-01T05:25:37.455Z,6.70
2023-01-01T05:30:43.037Z,7.37
2023-01-01T05:35:56.379Z,9.07
2023-01-01T05:41:04.095Z,7.33
2023-01-01T05:46:11.681Z,7.50
2023-01-01T05:51:21.339Z,5.00
2023-01-01T05:56:26.612Z,8.60
2023-01-01T06:01:32.976Z,7.90
2023-01-01T06:06:42.384Z,6.20
2023-01-01T06:11:47.375Z,6.63
2023-01-01T06:16:52.360Z,3.47
2023-01-01T06:22:00.169Z,5.93
2023-01-01T06:27:05.125Z,3.53
2023-01-01T06:32:10.141Z,4.03
2023-01-01T06:37:17.723Z,6.23
2023-01-01T06:42:22.730Z,3.90
2023-01-01T06:47:27.805Z,5.63
2023-01-01T06:52:35.432Z,7.47
2023-01-01T06:57:40.342Z,4.63
2023-01-01T07:02:45.595Z,5.63
2023-01-01T07:07:53.470Z,5.63
2023-01-01T07:12:58.673Z,6.10
2023-01-01T07:18:03.794Z,5.97
2023-01-01T07:23:16.403Z,5.90
2023-01-01T07:28:21.930Z,5.60
2023-01-01T07:33:29.648Z,4.77
2023-01-01T07:38:37.715Z,5.57
2023-01-01T07:43:42.715Z,5.10
2023-01-01T07:48:49.933Z,6.20
2023-01-01T07:54:03.954Z,7.80
2023-01-01T07:59:14.368Z,6.30
2023-01-01T08:04:22.071Z,6.37
2023-01-01T08:09:30.945Z,5.50
2023-01-01T08:14:36.309Z,4.30
2023-01-01T08:19:42.770Z,4.53
2023-01-01T08:24:50.297Z,5.97
2023-01-01T08:29:55.298Z,5.10
2023-01-01T08:35:00.249Z,5.50
2023-01-01T08:40:09.570Z,6.33
2023-01-01T08:45:16.049Z,8.37
2023-01-01T08:50:21.264Z,8.87
2023-01-01T08:55:29.481Z,7.03
2023-01-01T09:00:38.065Z,8.27
2023-01-01T09:05:45.815Z,5.43
2023-01-01T09:10:54.551Z,6.67
2023-01-01T09:16:00.250Z,7.37
2023-01-01T09:21:06.707Z,9.57
2023-01-01T09:26:18.630Z,6.93
2023-01-01T09:31:26.774Z,3.80
2023-01-01T09:36:33.340Z,8.67
2023-01-01T09:42:00.776Z,5.07
2023-01-01T09:47:08.832Z,6.67
2023-01-01T09:52:23.663Z,7.47
2023-01-01T09:57:34.593Z,2.80
2023-01-01T10:02:55.732Z,7.60
2023-01-01T10:08:09.469Z,8.93
2023-01-01T10:13:28.104Z,4.47
2023-01-01T10:18:38.464Z,6.03
2023-01-01T10:23:47.446Z,4.30
2023-01-01T10:29:01.993Z,5.63
2023-01-01T10:34:19.201Z,3.90
2023-01-01T10:39:25.619Z,5.00
2023-01-01T10:44:39.508Z,9.53
2023-01-01T10:49:57.614Z,6.33
2023-01-01T10:55:03.128Z,3.93
2023-01-01T11:00:25.206Z,11.30
2023-01-01T11:05:30.408Z,8.07
2023-01-01T11:10:35.707Z,8.13
2023-01-01T11:15:45.673Z,6.63
2023-01-01T11:20:55.828Z,9.90
2023-01-01T11:26:03.970Z,7.40
2023-01-01T11:31:17.892Z,7.73
2023-01-01T11:36:33.262Z,8.10
2023-01-01T11:41:47.133Z,7.07
2023-01-01T11:46:56.525Z,8.43
2023-01-01T11:52:02.267Z,7.87
2023-01-01T11:57:15.239Z,6.30
2023-01-01T12:02:35.792Z,10.93
2023-01-01T12:07:43.700Z,8.67
2023-01-01T12:12:54.635Z,7.53
2023-01-01T12:18:14.647Z,8.37
2023-01-01T12:23:21.952Z,5.77
2023-01-01T12:28:37.334Z,8.13
2023-01-01T12:34:08.557Z,7.80
2023-01-01T12:39:52.223Z,6.73
2023-01-01T12:45:17.199Z,8.50
2023-01-01T12:50:38.475Z,7.67
2023-01-01T12:56:08.190Z,7.13
2023-01-01T13:01:21.133Z,8.73
2023-01-01T13:06:33.992Z,9.00
2023-01-01T13:11:44.978Z,8.57
2023-01-01T13:16:54.849Z,9.73
2023-01-01T13:22:24.076Z,7.47
2023-01-01T13:28:00.714Z,8.67
2023-01-01T13:33:34.846Z,11.77
2023-01-01T13:38:53.869Z,5.00
2023-01-01T13:44:23.476Z,7.27
2023-01-01T13:49:36.506Z,7.23
2023-01-01T13:55:11.010Z,8.00
2023-01-01T14:00:28.284Z,6.53
2023-01-01T14:05:38.698Z,9.30
2023-01-01T14:10:44.760Z,3.87
2023-01-01T14:16:00.223Z,9.10
2023-01-01T14:21:06.142Z,7.33
2023-01-01T14:26:15.137Z,7.93
2023-01-01T14:31:26.229Z,7.90
2023-01-01T14:36:33.675Z,9.43
2023-01-01T14:41:41.133Z,6.93
2023-01-01T14:46:52.209Z,8.70
2023-01-01T14:52:04.654Z,9.20
2023-01-01T14:57:14.228Z,11.00
2023-01-01T15:02:26.881Z,10.53
2023-01-01T15:07:34.469Z,8.50
2023-01-01T15:12:45.325Z,9.87
2023-01-01T15:17:52.992Z,8.10
2023-01-01T15:23:10.560Z,7.20
2023-01-01T15:28:22.368Z,9.60
2023-01-01T15:33:30.187Z,9.60
2023-01-01T15:38:37.701Z,7.20
2023-01-01T15:43:42.688Z,7.70
2023-01-01T15:48:54.942Z,6.63
2023-01-01T15:54:02.935Z,7.40
2023-01-01T15:59:10.325Z,6.20
2023-01-01T16:04:28.339Z,9.87
2023-01-01T16:09:38.843Z,8.23
2023-01-01T16:14:44.590Z,10.80
2023-01-01T16:19:56.344Z,4.77
2023-01-01T16:25:03.725Z,9.07
2023-01-01T16:30:10.148Z,5.13
2023-01-01T16:35:19.131Z,9.50
2023-01-01T16:40:28.535Z,7.47
2023-01-01T16:45:38.353Z,7.80
2023-01-01T16:50:46.567Z,7.57
2023-01-01T16:55:56.531Z,8.73
2023-01-01T17:01:05.142Z,14.70
2023-01-01T17:06:16.156Z,13.13
2023-01-01T17:11:22.738Z,13.00
2023-01-01T17:16:34.383Z,6.80
2023-01-01T17:21:46.845Z,9.63
2023-01-01T17:26:54.676Z,10.57
2023-01-01T17:31:59.736Z,8.63
2023-01-01T17:37:07.673Z,7.03
2023-01-01T17:42:12.650Z,8.93
2023-01-01T17:47:17.600Z,7.57
2023-01-01T17:52:28.813Z,9.23
2023-01-01T17:57:33.904Z,6.30
2023-01-01T18:02:39.813Z,14.90
2023-01-01T18:07:47.463Z,7.87
2023-01-01T18:13:05.124Z,6.30
2023-01-01T18:18:10.352Z,8.23
2023-01-01T18:23:19.726Z,10.07
2023-01-01T18:28:24.644Z,7.47
2023-01-01T18:33:29.785Z,10.83
2023-01-01T18:38:40.988Z,10.27
2023-01-01T18:43:46.119Z,7.53
2023-01-01T18:48:55.494Z,8.47
2023-01-01T18:54:14.959Z,8.47
2023-01-01T18:59:24.217Z,9.83
2023-01-01T19:04:29.591Z,13.33
2023-01-01T19:09:39.060Z,8.37
2023-01-01T19:14:46.771Z,8.37
2023-01-01T19:19:53.142Z,8.60
2023-01-01T19:25:04.247Z,12.37
2023-01-01T19:30:25.117Z,9.20
2023-01-01T19:35:36.912Z,9.70
2023-01-01T19:40:45.256Z,10.40
2023-01-01T19:45:50.676Z,8.70
2023-01-01T19:50:56.266Z,5.27
2023-01-01T19:56:04.694Z,13.93
2023-01-01T20:01:29.425Z,5.90
2023-01-01T20:06:38.095Z,9.60
2023-01-01T20:11:50.594Z,12.53
2023-01-01T20:16:58.018Z,9.97
2023-01-01T20:22:15.265Z,8.93
2023-01-01T20:27:27.208Z,12.83
2023-01-01T20:32:32.623Z,9.30
2023-01-01T20:37:41.043Z,8.90
2023-01-01T20:42:49.025Z,9.13
2023-01-01T20:47:54.415Z,8.83
2023-01-01T20:53:01.923Z,11.87
2023-01-01T20:58:10.609Z,10.93
2023-01-01T21:03:17.104Z,10.40
2023-01-01T21:08:22.889Z,11.43
2023-01-01T21:13:31.242Z,8.10
2023-01-01T21:18:38.162Z,10.53
2023-01-01T21:23:44.124Z,10.70
2023-01-01T21:28:52.105Z,13.50
2023-01-01T21:33:57.139Z,11.80
2023-01-01T21:39:07.771Z,9.90
2023-01-01T21:44:18.379Z,12.57
2023-01-01T21:49:31.168Z,9.60
2023-01-01T21:54:39.635Z,12.20
2023-01-01T21:59:48.897Z,9.53
2023-01-01T22:04:54.578Z,11.80
2023-01-01T22:10:01.072Z,14.77
2023-01-01T22:15:31.444Z,12.60
2023-01-01T22:20:41.849Z,12.37
2023-01-01T22:25:46.976Z,10.87
2023-01-01T22:30:58.191Z,13.63
2023-01-01T22:36:04.649Z,16.13
2023-01-01T22:41:12.491Z,12.10
2023-01-01T22:46:36.742Z,15.53
2023-01-01T22:51:44.992Z,11.73
2023-01-01T22:56:49.998Z,13.07
2023-01-01T23:02:04.958Z,12.83
2023-01-01T23:07:15.958Z,11.80
2023-01-01T23:12:21.396Z,14.17
2023-01-01T23:17:29.223Z,15.67
2023-01-01T23:22:40.649Z,10.20
2023-01-01T23:27:47.348Z,16.57
2023-01-01T23:32:56.214Z,14.17
2023-01-01T23:38:03.234Z,17.77
2023-01-01T23:43:08.288Z,17.17
2023-01-01T23:48:16.651Z,14.80
2023-01-01T23:53:21.829Z,16.33
2023-01-01T23:58:28.247Z,13.83
